Time;durP1;ratioP1;P1;durP2;ratioP2;P2;SDS_P1;SDS_P2;PMS_P1;PMS_P2;Temp;Humidity;BMP_temperature;BMP_pressure;BME280_temperature;BME280_humidity;BME280_pressure;Samples;Min_cycle;Max_cycle;Signal;HPM_P1;HPM_P2
2022/09/11 00:01:46;;;;;;;14.10;9.15;;;19.10;99.90;;;19.53;81.57;101701.88;5115242;28;20062;-68
2022/09/11 00:04:14;;;;;;;9.90;8.20;;;19.10;99.90;;;19.42;81.50;101684.31;5115463;28;20035;-68
2022/09/11 00:06:43;;;;;;;9.52;8.65;;;19.10;99.90;;;19.56;81.71;101698.22;5115376;28;20641;-68
2022/09/11 00:09:11;;;;;;;9.95;8.95;;;19.10;99.90;;;19.57;81.96;101702.66;5115131;28;20504;-68
2022/09/11 00:11:42;;;;;;;10.98;9.98;;;19.10;99.90;;;19.59;82.07;101704.38;5115105;28;20039;-68
2022/09/11 00:14:12;;;;;;;;;;;19.10;99.90;;;19.56;82.17;101700.91;5115506;28;20512;-68
2022/09/11 00:16:46;;;;;;;10.25;9.15;;;19.20;99.90;;;19.60;82.32;101702.59;5115020;28;19955;-68
2022/09/11 00:19:17;;;;;;;7.80;7.10;;;19.10;99.90;;;19.50;82.02;101696.59;5113886;28;20416;-68
2022/09/11 00:21:46;;;;;;;5.85;5.45;;;19.10;99.90;;;19.45;81.74;101697.66;5114980;28;20058;-68
2022/09/11 00:24:14;;;;;;;6.80;6.30;;;19.00;99.90;;;19.41;81.57;101702.22;5114309;28;20040;-68
2022/09/11 00:26:43;;;;;;;9.63;8.68;;;18.90;99.90;;;19.46;81.48;101702.97;5114997;28;20040;-68
2022/09/11 00:29:12;;;;;;;17.45;15.65;;;19.00;99.90;;;19.52;82.42;101705.50;5113757;28;20047;-68
2022/09/11 00:31:40;;;;;;;15.93;14.30;;;19.00;99.90;;;19.62;82.52;101698.94;5114912;28;20108;-68
2022/09/11 00:34:10;;;;;;;14.38;12.05;;;19.10;99.90;;;19.62;82.53;101704.31;5113484;28;20073;-68
2022/09/11 00:36:42;;;;;;;10.15;9.25;;;19.10;99.90;;;19.57;82.34;101697.28;5114614;28;20104;-68
2022/09/11 00:39:11;;;;;;;7.95;7.25;;;19.10;99.90;;;19.22;81.68;101665.19;5114561;28;20063;-68
2022/09/11 00:41:43;;;;;;;7.13;6.43;;;19.00;99.90;;;19.37;81.67;101680.88;5114622;28;20040;-68
2022/09/11 00:45:00;;;;;;;8.75;6.88;;;19.00;99.90;;;19.39;81.81;101693.34;5114573;28;20051;-68
2022/09/11 00:47:30;;;;;;;7.65;6.90;;;18.90;99.90;;;19.36;82.00;101692.53;5114412;28;20086;-67
2022/09/11 00:50:10;;;;;;;;;;;18.90;99.90;;;19.39;82.05;101696.03;5115063;28;20100;-68
2022/09/11 00:52:42;;;;;;;11.73;10.52;;;19.00;99.90;;;19.08;82.18;101641.41;5114446;28;20288;-68
2022/09/11 00:55:14;;;;;;;11.27;10.23;;;19.00;99.90;;;19.34;82.23;101675.59;5113018;28;20054;-68
2022/09/11 00:57:52;;;;;;;10.73;9.57;;;19.00;99.90;;;19.46;82.38;101691.34;5112853;28;20150;-68
2022/09/11 01:00:22;;;;;;;15.13;9.60;;;19.00;99.90;;;19.50;82.40;101691.22;5114057;28;20043;-68
2022/09/11 01:02:53;;;;;;;14.02;9.98;;;19.00;99.90;;;19.54;82.81;101694.72;5113003;28;20066;-68
2022/09/11 01:05:25;;;;;;;16.95;11.52;;;19.10;99.90;;;19.53;82.13;101695.66;5114205;28;20042;-68
2022/09/11 01:07:56;;;;;;;17.95;15.45;;;19.10;99.90;;;19.46;81.94;101702.09;5114104;28;20475;-68
2022/09/11 01:10:34;;;;;;;14.98;13.38;;;19.10;99.90;;;19.46;82.29;101702.09;5113966;28;20048;-68
2022/09/11 01:13:10;;;;;;;12.80;10.68;;;19.00;99.90;;;19.44;82.54;101699.44;5114111;28;20036;-68
2022/09/11 01:15:47;;;;;;;10.23;8.90;;;19.00;99.90;;;19.28;82.47;101698.06;5113923;28;20083;-68
2022/09/11 01:18:26;;;;;;;6.35;5.85;;;18.80;99.90;;;19.05;82.34;101675.47;5112534;28;20048;-68
2022/09/11 01:21:31;;;;;;;10.52;9.43;;;18.60;99.90;;;18.37;82.40;101581.56;5112434;28;20050;-68
2022/09/11 01:24:25;;;;;;;8.77;7.40;;;18.60;99.90;;;19.10;82.71;101703.03;5098396;28;20054;-68
2022/09/11 01:27:31;;;;;;;3.95;3.65;;;18.60;99.90;;;19.02;82.38;101700.56;5112545;28;20059;-68
2022/09/11 01:30:04;;;;;;;6.25;5.20;;;18.70;99.90;;;19.18;82.52;101707.28;5113661;28;20039;-68
2022/09/11 01:33:00;;;;;;;6.65;6.15;;;18.70;99.90;;;19.04;82.38;101668.34;5113852;28;20044;-68
2022/09/11 01:35:41;;;;;;;7.90;7.15;;;18.80;99.90;;;19.21;81.66;101700.94;5112768;28;20057;-67
2022/09/11 01:38:17;;;;;;;9.02;8.27;;;18.80;99.90;;;19.26;81.70;101702.59;5112427;28;20050;-68
2022/09/11 01:40:53;;;;;;;10.82;9.93;;;18.90;99.90;;;19.35;82.15;101704.19;5112317;28;20141;-68
2022/09/11 01:43:29;;;;;;;12.30;11.20;;;18.90;99.90;;;19.41;82.49;101706.72;5112163;28;20090;-68
2022/09/11 01:46:01;;;;;;;11.82;10.82;;;19.00;99.90;;;18.95;82.33;101613.13;5113246;28;20051;-68
2022/09/11 01:48:37;;;;;;;12.43;11.35;;;19.00;99.90;;;19.34;82.16;101702.41;5112075;28;20436;-68
2022/09/11 01:51:08;;;;;;;12.82;11.65;;;19.00;99.90;;;19.48;82.58;101694.88;5113508;28;20047;-68
2022/09/11 01:53:39;;;;;;;8.30;7.60;;;19.10;99.90;;;19.38;82.51;101698.72;5112118;28;20043;-68
2022/09/11 01:56:14;;;;;;;12.65;11.55;;;19.00;99.90;;;19.44;82.41;101701.25;5111882;28;20134;-68
2022/09/11 01:58:47;;;;;;;12.98;11.80;;;19.00;99.90;;;19.21;82.65;101658.91;5111882;28;20078;-67
2022/09/11 02:01:21;;;;;;;8.00;7.20;;;19.00;99.90;;;19.36;82.19;101692.53;5113047;28;20477;-68
2022/09/11 02:03:55;;;;;;;10.68;9.68;;;19.00;99.90;;;19.29;82.25;101696.28;5111907;28;20044;-68
2022/09/11 02:06:33;;;;;;;8.80;7.55;;;18.90;99.90;;;19.26;82.33;101704.41;5113057;28;20032;-68
2022/09/11 02:09:06;;;;;;;9.20;8.00;;;18.80;99.90;;;18.92;81.98;101670.44;5111744;28;20467;-68
2022/09/11 02:11:40;;;;;;;9.07;8.20;;;18.70;99.90;;;19.10;82.31;101711.97;5112005;28;20055;-68
2022/09/11 02:14:19;;;;;;;11.55;9.63;;;18.60;99.90;;;19.05;82.34;101711.19;5113163;28;20039;-68
2022/09/11 02:16:51;;;;;;;12.63;10.23;;;18.60;99.90;;;19.00;82.82;101720.28;5111659;28;20496;-68
2022/09/11 02:19:23;;;;;;;10.13;9.00;;;18.60;99.90;;;19.00;83.18;101715.81;5111696;28;20047;-68
2022/09/11 02:21:53;;;;;;;6.40;5.90;;;18.50;99.90;;;18.92;83.19;101718.69;5111968;28;20468;-68
2022/09/11 02:24:22;;;;;;;7.97;7.25;;;18.50;99.90;;;18.91;83.66;101706.19;5113280;28;20040;-68
2022/09/11 02:26:58;;;;;;;8.43;7.45;;;18.50;99.90;;;18.73;83.24;101697.75;5111701;28;20134;-68
2022/09/11 02:29:27;;;;;;;8.82;8.02;;;18.40;99.90;;;18.83;83.32;101721.56;5111658;28;20487;-68
2022/09/11 02:31:59;;;;;;;6.82;6.32;;;18.40;99.90;;;18.80;83.28;101727.03;5111611;28;20456;-68
2022/09/11 02:34:36;;;;;;;10.00;9.20;;;18.30;99.90;;;18.88;83.69;101727.72;5111786;28;20082;-68
2022/09/11 02:37:37;;;;;;;14.13;10.20;;;18.40;99.90;;;18.75;83.88;101693.22;5111720;28;20489;-68
2022/09/11 02:40:19;;;;;;;16.10;9.68;;;18.40;99.90;;;18.88;83.28;101727.72;5111532;28;20047;-68
2022/09/11 02:43:07;;;;;;;8.20;7.38;;;18.40;99.90;;;18.77;83.55;101727.13;5111661;28;20052;-68
2022/09/11 02:45:53;;;;;;;5.90;5.45;;;18.30;99.90;;;18.80;84.01;101719.00;5111484;28;20067;-68
2022/09/11 02:48:44;;;;;;;6.05;5.55;;;18.30;99.90;;;18.73;83.68;101719.19;5115412;28;20048;-68
2022/09/11 02:51:25;;;;;;;8.38;5.63;;;18.30;99.90;;;18.71;83.34;101712.97;5115634;28;20043;-68
2022/09/11 02:54:04;;;;;;;5.90;5.45;;;18.30;99.90;;;18.73;83.08;101725.44;5115528;28;20519;-68
2022/09/11 02:56:41;;;;;;;11.15;10.05;;;18.30;99.90;;;18.70;83.17;101725.47;5116673;28;20049;-68
2022/09/11 02:59:18;;;;;;;9.23;8.27;;;18.20;99.90;;;18.73;83.00;101722.75;5115276;28;20093;-68
2022/09/11 03:01:52;;;;;;;7.95;7.20;;;18.30;99.90;;;18.66;82.84;101725.63;5115187;28;20086;-68
2022/09/11 03:04:24;;;;;;;7.32;6.72;;;18.20;99.90;;;18.60;82.76;101737.34;5115279;28;20400;-68
2022/09/11 03:06:55;;;;;;;6.28;5.72;;;18.10;99.90;;;17.91;82.74;101581.81;5116425;28;20044;-68
2022/09/11 03:09:23;;;;;;;7.80;7.10;;;18.20;99.90;;;18.88;82.54;101722.38;5116176;28;20039;-68
2022/09/11 03:11:56;;;;;;;6.97;6.22;;;18.40;99.90;;;18.70;82.42;101712.09;5115227;28;20062;-68
2022/09/11 03:14:24;;;;;;;7.10;5.28;;;18.30;99.90;;;18.55;82.13;101725.84;5115137;28;20040;-68
2022/09/11 03:16:54;;;;;;;6.57;5.97;;;18.20;99.90;;;18.50;82.15;101732.25;5114951;28;20043;-68
2022/09/11 03:19:24;;;;;;;7.65;6.95;;;18.10;99.90;;;18.44;82.42;101729.69;5114914;28;20067;-68
2022/09/11 03:21:52;;;;;;;8.88;8.00;;;18.00;99.90;;;18.45;82.76;101731.44;5116083;28;20443;-68
2022/09/11 03:24:22;;;;;;;6.88;6.20;;;18.00;99.90;;;18.49;82.90;101733.16;5114973;28;20052;-67
2022/09/11 03:26:50;;;;;;;7.28;6.57;;;18.00;99.90;;;18.53;83.04;101726.81;5114834;28;20138;-68
2022/09/11 03:29:18;;;;;;;9.25;8.30;;;18.10;99.90;;;18.47;83.19;101717.13;5114781;28;20032;-68
2022/09/11 03:31:47;;;;;;;10.20;9.18;;;18.10;99.90;;;18.54;83.05;101723.22;5116062;28;20056;-68
2022/09/11 03:34:18;;;;;;;15.82;8.85;;;18.10;99.90;;;18.50;83.29;101711.69;5114485;28;20047;-68
2022/09/11 03:36:47;;;;;;;9.95;8.95;;;18.10;99.90;;;18.33;83.36;101670.09;5114974;28;20052;-68
2022/09/11 03:39:16;;;;;;;8.75;7.28;;;18.10;99.90;;;18.57;83.23;101729.38;5115816;28;20127;-68
2022/09/11 03:41:44;;;;;;;7.97;7.20;;;18.10;99.90;;;18.58;83.06;101732.97;5115815;28;20039;-68
2022/09/11 03:44:12;;;;;;;13.73;12.35;;;18.10;99.90;;;18.56;83.17;101732.09;5115721;28;20058;-68
2022/09/11 03:46:40;;;;;;;18.08;15.73;;;18.10;99.90;;;18.17;83.54;101657.97;5114053;28;20472;-67
2022/09/11 03:49:09;;;;;;;15.27;13.32;;;18.20;99.90;;;18.69;83.46;101734.47;5114263;28;20137;-68
2022/09/11 03:51:39;;;;;;;16.75;13.88;;;18.20;99.90;;;18.57;82.95;101739.22;5114403;28;20047;-68
2022/09/11 03:54:07;;;;;;;12.00;9.88;;;18.20;99.90;;;18.47;82.36;101730.50;5115543;28;20035;-68
2022/09/11 03:56:36;;;;;;;14.23;10.05;;;18.10;99.90;;;18.29;82.03;101703.25;5114263;28;20109;-68
2022/09/11 03:59:04;;;;;;;12.70;11.23;;;18.00;99.90;;;18.47;81.94;101735.88;5113137;28;20139;-68
2022/09/11 04:01:35;;;;;;;12.27;11.13;;;18.00;99.90;;;18.44;82.26;101735.94;5113862;28;20051;-68
2022/09/11 04:04:04;;;;;;;11.93;10.25;;;18.00;99.90;;;18.45;82.21;101744.84;5114091;28;20078;-68
2022/09/11 04:06:41;;;;;;;11.57;10.57;;;18.00;99.90;;;18.39;82.83;101743.16;5114034;28;20120;-68
2022/09/11 04:09:09;;;;;;;14.10;10.80;;;17.90;99.90;;;18.08;82.73;101684.97;5113931;28;20047;-68
2022/09/11 04:11:39;;;;;;;12.80;11.10;;;17.90;99.90;;;18.38;82.86;101733.38;5115102;28;20135;-68
2022/09/11 04:14:22;;;;;;;12.70;11.38;;;17.90;99.90;;;18.34;82.91;101712.03;5115307;28;20050;-68
2022/09/11 04:16:53;;;;;;;10.65;9.75;;;18.00;99.90;;;18.22;83.08;101698.91;5113868;28;20047;-68
2022/09/11 04:19:22;;;;;;;11.48;10.27;;;18.00;99.90;;;18.43;82.86;101747.56;5113624;28;20067;-68
2022/09/11 04:21:52;;;;;;;14.70;13.23;;;18.00;99.90;;;18.42;83.03;101752.94;5113607;28;20154;-68
2022/09/11 04:24:21;;;;;;;9.57;8.73;;;18.00;99.90;;;18.38;82.78;101744.09;5113583;28;20518;-68
2022/09/11 04:26:50;;;;;;;13.80;9.63;;;18.00;99.90;;;18.33;82.93;101740.63;5113394;28;20051;-68
2022/09/11 04:29:23;;;;;;;7.38;6.65;;;17.90;99.90;;;18.25;82.52;101741.72;5113572;28;20043;-68
2022/09/11 04:31:52;;;;;;;8.60;7.80;;;17.80;99.90;;;18.19;82.72;101741.84;5113501;28;20063;-68
2022/09/11 04:34:25;;;;;;;8.68;6.00;;;17.70;99.90;;;18.03;82.44;101752.00;5113414;28;20044;-68
2022/09/11 04:36:55;;;;;;;5.32;4.93;;;17.60;99.90;;;17.45;81.80;101660.38;5114602;28;20069;-68
2022/09/11 04:39:24;;;;;;;6.38;5.78;;;17.50;99.90;;;17.82;81.57;101747.97;5113468;28;20086;-68
2022/09/11 04:41:53;;;;;;;6.93;5.22;;;17.40;99.90;;;17.67;81.23;101744.72;5113229;28;20074;-68
2022/09/11 04:44:22;;;;;;;5.53;4.75;;;17.20;99.90;;;17.40;81.21;101715.78;5113111;28;20044;-68
2022/09/11 04:46:51;;;;;;;4.20;3.83;;;17.10;99.90;;;17.56;81.18;101750.25;5112863;28;20489;-67
2022/09/11 04:49:20;;;;;;;3.63;3.42;;;17.10;99.90;;;17.56;81.67;101750.25;5112910;28;20448;-68
2022/09/11 04:51:49;;;;;;;4.45;4.15;;;17.10;99.90;;;17.55;81.68;101758.31;5113036;28;20083;-68
2022/09/11 04:54:24;;;;;;;5.10;4.60;;;17.10;99.90;;;17.24;81.30;101703.59;5113104;28;20036;-68
2022/09/11 04:56:53;;;;;;;4.90;4.50;;;17.10;99.90;;;17.67;81.09;101785.72;5112969;28;20071;-67
2022/09/11 04:59:23;;;;;;;7.25;6.50;;;17.20;99.90;;;17.74;81.06;101771.34;5112869;28;20036;-68
2022/09/11 05:02:05;;;;;;;6.07;5.57;;;17.30;99.90;;;17.70;80.84;101761.59;5112727;28;20043;-68
2022/09/11 05:04:37;;;;;;;6.75;5.80;;;17.40;99.90;;;17.60;81.27;101775.16;5112937;28;20097;-68
2022/09/11 05:07:05;;;;;;;6.55;5.95;;;17.20;99.90;;;17.58;82.02;101782.34;5114061;27;20473;-68
2022/09/11 05:09:36;;;;;;;6.63;5.95;;;17.20;99.90;;;17.58;82.18;101783.22;5112697;28;20054;-68
2022/09/11 05:12:06;;;;;;;6.13;5.63;;;17.20;99.90;;;17.64;81.95;101782.22;5112702;28;20046;-68
2022/09/11 05:14:36;;;;;;;;;;;17.20;99.90;;;17.53;81.21;101792.25;5113009;28;20059;-68
2022/09/11 05:17:05;;;;;;;11.00;7.05;;;17.20;99.90;;;17.44;81.66;101779.03;5112650;28;19920;-68
2022/09/11 05:19:38;;;;;;;5.55;5.05;;;17.10;99.90;;;17.48;81.49;101783.41;5112694;28;20074;-68
2022/09/11 05:22:08;;;;;;;5.63;5.13;;;17.00;99.90;;;17.48;81.47;101783.41;5113716;28;20047;-68
2022/09/11 05:24:39;;;;;;;6.00;5.47;;;17.00;99.90;;;17.52;81.75;101790.47;5112415;28;20489;-68
2022/09/11 05:27:08;;;;;;;6.72;6.03;;;17.10;99.90;;;17.55;81.99;101795.78;5112115;28;20044;-68
2022/09/11 05:29:38;;;;;;;;;;;17.10;99.90;;;17.66;82.21;101801.81;5112843;28;20068;-68
2022/09/11 05:32:11;;;;;;;5.97;5.47;;;17.30;99.90;;;17.75;82.20;101796.31;5112404;28;19996;-68
2022/09/11 05:34:41;;;;;;;;;;;17.30;99.90;;;17.71;81.72;101802.63;5112708;28;20051;-68
2022/09/11 05:37:13;;;;;;;4.68;4.15;;;17.30;99.90;;;17.56;81.26;101798.41;5112126;28;19972;-68
2022/09/11 05:39:46;;;;;;;4.45;4.07;;;17.20;99.90;;;17.62;81.33;101795.63;5112091;28;20039;-68
2022/09/11 05:42:16;;;;;;;3.88;3.58;;;17.20;99.90;;;17.70;81.36;101807.09;5112039;28;20047;-68
2022/09/11 05:44:49;;;;;;;3.75;3.53;;;17.30;99.90;;;17.74;81.53;101810.59;5112204;28;20140;-68
2022/09/11 05:47:17;;;;;;;6.68;4.22;;;17.30;99.90;;;17.88;81.69;101805.84;5113096;28;20477;-68
2022/09/11 05:49:49;;;;;;;4.85;4.45;;;17.40;99.90;;;17.92;81.91;101805.75;5112243;28;20043;-68
2022/09/11 05:52:18;;;;;;;7.28;5.80;;;17.50;99.90;;;18.14;81.95;101808.88;5111743;28;20054;-68
2022/09/11 05:54:47;;;;;;;6.55;5.85;;;17.60;99.90;;;18.27;81.25;101813.09;5112039;28;20105;-68
2022/09/11 05:57:16;;;;;;;8.07;6.87;;;17.80;99.90;;;18.12;80.88;101754.47;5112077;28;20043;-68
2022/09/11 05:59:44;;;;;;;8.88;6.57;;;18.00;99.90;;;18.70;80.35;101807.69;5113197;28;20048;-68
2022/09/11 06:02:13;;;;;;;9.05;8.13;;;18.30;99.90;;;18.78;79.17;101789.63;5111710;28;20496;-68
2022/09/11 06:04:47;;;;;;;9.77;6.97;;;18.40;99.90;;;19.06;79.21;101812.22;5111709;28;20044;-67
2022/09/11 06:07:15;;;;;;;11.57;7.63;;;18.60;99.90;;;19.22;78.66;101818.09;5113223;28;20134;-68
2022/09/11 06:09:51;;;;;;;14.20;8.40;;;18.70;99.90;;;19.18;78.42;101808.34;5111779;28;20138;-68
2022/09/11 06:12:20;;;;;;;15.85;8.75;;;18.80;99.90;;;19.55;77.83;101825.31;5111836;28;20043;-68
2022/09/11 06:14:49;;;;;;;14.35;8.63;;;19.00;99.90;;;19.72;77.24;101823.06;5111625;28;20039;-67
2022/09/11 06:17:18;;;;;;;14.68;9.65;;;19.30;99.90;;;19.52;76.39;101763.66;5111813;28;20097;-67
2022/09/11 06:19:47;;;;;;;12.25;8.63;;;19.50;99.90;;;19.37;76.20;101707.72;5111722;28;20489;-67
2022/09/11 06:22:20;;;;;;;13.68;9.32;;;19.60;99.90;;;19.36;75.43;101684.47;5114762;28;20089;-67
2022/09/11 06:24:52;;;;;;;10.20;7.10;;;19.70;99.90;;;20.22;74.93;101819.00;5115809;28;20053;-67
2022/09/11 06:27:21;;;;;;;11.68;8.10;;;19.80;99.90;;;20.39;73.91;101822.97;5115723;28;20043;-68
2022/09/11 06:29:50;;;;;;;7.72;7.03;;;19.90;99.90;;;20.41;73.48;101813.06;5115562;28;20047;-67
2022/09/11 06:32:20;;;;;;;12.15;10.95;;;20.10;99.90;;;20.65;74.46;101820.34;5115858;28;20051;-68
2022/09/11 06:34:49;;;;;;;10.98;9.88;;;20.20;99.90;;;20.94;73.40;101819.47;5115611;28;20052;-67
2022/09/11 06:37:18;;;;;;;12.82;9.70;;;20.50;99.90;;;21.12;73.09;101810.81;5115614;28;20415;-67
2022/09/11 06:39:48;;;;;;;12.13;10.88;;;20.70;99.90;;;21.51;73.00;101824.75;5115496;28;20052;-67
2022/09/11 06:42:30;;;;;;;15.02;13.52;;;21.00;99.90;;;21.81;71.75;101831.81;5115676;28;20061;-67
2022/09/11 06:45:01;;;;;;;16.50;14.88;;;21.30;99.90;;;22.19;71.29;101835.81;5115364;28;20449;-67
2022/09/11 06:47:31;;;;;;;20.00;18.00;;;21.70;99.90;;;22.33;70.71;101829.00;5115188;28;20130;-67
2022/09/11 06:49:59;;;;;;;16.90;15.13;;;22.00;99.90;;;22.58;70.20;101837.06;5115426;28;20465;-67
2022/09/11 06:52:43;;;;;;;16.05;14.45;;;22.20;99.90;;;22.59;70.70;101835.25;5115063;28;20408;-67
2022/09/11 06:55:21;;;;;;;18.90;16.67;;;22.20;99.90;;;22.69;70.80;101839.31;5115183;28;20058;-67
2022/09/11 06:58:01;;;;;;;16.90;14.80;;;22.30;99.90;;;22.84;70.21;101833.34;5115259;28;20047;-67
2022/09/11 07:00:31;;;;;;;17.90;16.10;;;22.40;99.90;;;22.95;69.44;101834.69;5115273;28;20071;-67
2022/09/11 07:03:01;;;;;;;15.77;14.30;;;22.60;99.90;;;23.38;68.75;101850.03;5114879;28;20051;-67
2022/09/11 07:05:30;;;;;;;18.42;16.50;;;22.90;99.90;;;23.56;68.36;101849.25;5116409;28;20293;-67
2022/09/11 07:08:01;;;;;;;19.98;17.88;;;23.20;99.90;;;23.61;67.95;101847.25;5115027;28;20062;-67
2022/09/11 07:10:33;;;;;;;20.48;18.48;;;23.20;99.90;;;23.70;67.72;101854.94;5115314;28;20417;-67
2022/09/11 07:13:04;;;;;;;21.73;19.50;;;23.30;99.90;;;23.72;68.21;101836.84;5114906;28;20048;-66
2022/09/11 07:15:32;;;;;;;22.55;19.23;;;23.40;99.90;;;24.14;67.45;101858.44;5116012;28;20407;-68
2022/09/11 07:18:02;;;;;;;26.80;24.10;;;23.70;99.90;;;24.23;66.76;101857.16;5113963;28;20051;-67
2022/09/11 07:20:31;;;;;;;24.90;22.30;;;23.90;99.90;;;24.39;66.38;101871.75;5116174;28;20097;-67
2022/09/11 07:22:59;;;;;;;26.45;23.67;;;23.90;99.90;;;24.51;66.58;101866.63;5114711;28;20047;-67
2022/09/11 07:25:30;;;;;;;25.27;22.80;;;24.10;99.90;;;24.73;65.99;101869.25;5114633;28;20142;-66
2022/09/11 07:27:59;;;;;;;25.42;22.92;;;24.30;99.90;;;24.83;65.80;101876.00;5115808;28;20051;-67
2022/09/11 07:30:31;;;;;;;26.30;23.80;;;24.40;99.90;;;24.76;65.83;101874.53;5114671;28;20127;-67
2022/09/11 07:33:00;;;;;;;25.85;21.73;;;24.40;99.90;;;24.76;65.43;101879.94;5113276;28;20096;-67
2022/09/11 07:35:29;;;;;;;24.42;22.08;;;24.40;99.90;;;24.76;65.50;101883.53;5114543;28;20047;-67
2022/09/11 07:37:58;;;;;;;24.77;22.17;;;24.40;99.90;;;25.19;64.27;101887.78;5114361;28;20053;-67
2022/09/11 07:40:28;;;;;;;20.27;18.15;;;24.80;99.90;;;25.47;63.93;101877.38;5114252;28;20100;-67
2022/09/11 07:42:59;;;;;;;20.40;18.25;;;25.20;99.90;;;25.37;62.56;101884.16;5114555;28;20050;-67
2022/09/11 07:45:29;;;;;;;19.00;16.67;;;25.10;99.90;;;25.18;62.55;101886.03;5114140;28;20074;-67
2022/09/11 07:48:01;;;;;;;13.48;12.25;;;24.90;99.90;;;25.02;61.11;101887.72;5114009;28;20047;-67
2022/09/11 07:50:31;;;;;;;16.10;14.55;;;24.70;99.90;;;25.09;62.30;101886.44;5114156;28;20413;-67
2022/09/11 07:53:00;;;;;;;15.25;13.43;;;24.70;99.90;;;24.64;62.03;101848.03;5113535;28;20130;-68
2022/09/11 07:55:29;;;;;;;14.77;12.57;;;24.40;99.90;;;24.86;61.97;101882.16;5114061;28;20048;-67
2022/09/11 07:57:57;;;;;;;12.98;11.52;;;24.40;99.90;;;25.10;60.92;101882.81;5114086;28;20408;-67
2022/09/11 08:00:26;;;;;;;11.40;10.30;;;24.60;99.90;;;25.32;60.18;101882.66;5113960;28;20070;-67
2022/09/11 08:03:04;;;;;;;7.97;6.38;;;24.90;99.90;;;25.12;57.63;101885.44;5113846;28;20074;-67
2022/09/11 08:05:36;;;;;;;7.32;6.65;;;24.80;99.90;;;24.97;58.98;101878.94;5113837;28;20483;-67
2022/09/11 08:08:05;;;;;;;11.07;7.80;;;24.60;99.90;;;24.64;58.77;101802.88;5113820;28;20071;-67
2022/09/11 08:10:39;;;;;;;10.40;7.10;;;24.70;99.90;;;25.48;57.68;101886.38;5113616;28;20097;-67
2022/09/11 08:13:08;;;;;;;9.52;7.78;;;25.00;99.90;;;25.10;58.10;101893.66;5113815;28;20400;-67
2022/09/11 08:15:37;;;;;;;9.07;7.43;;;24.80;99.90;;;24.61;60.12;101888.75;5113703;28;20050;-67
2022/09/11 08:18:09;;;;;;;8.70;7.00;;;24.20;99.90;;;25.14;59.60;101886.25;5113239;28;20056;-67
2022/09/11 08:20:37;;;;;;;8.80;6.03;;;24.70;99.90;;;25.66;59.14;101901.72;5113499;28;20146;-67
2022/09/11 08:23:06;;;;;;;9.57;7.75;;;25.20;99.90;;;25.49;57.96;101896.25;5113405;28;20319;-67
2022/09/11 08:25:36;;;;;;;8.48;7.05;;;25.20;99.90;;;25.64;57.33;101893.66;5114721;28;20082;-67
2022/09/11 08:28:05;;;;;;;;;;;25.30;99.90;;;25.82;56.83;101900.84;5113829;28;20489;-67
2022/09/11 08:30:37;;;;;;;8.00;6.10;;;25.50;99.90;;;25.88;56.84;101856.25;5113138;28;19927;-67
2022/09/11 08:33:07;;;;;;;9.50;6.05;;;25.70;99.90;;;26.35;55.59;101916.19;5113380;28;20054;-67
2022/09/11 08:35:37;;;;;;;8.70;5.47;;;26.00;99.90;;;26.39;55.99;101907.81;5113625;28;20043;-67
2022/09/11 08:38:06;;;;;;;6.53;5.78;;;26.00;99.90;;;26.63;54.37;101892.03;5113318;28;20138;-67
2022/09/11 08:40:38;;;;;;;7.03;4.90;;;26.40;99.90;;;27.13;54.38;101913.69;5113056;28;20146;-67
2022/09/11 08:43:20;;;;;;;7.53;4.95;;;26.80;99.90;;;26.68;53.34;101917.09;5112911;28;20122;-67
2022/09/11 08:45:51;;;;;;;8.40;4.88;;;26.50;99.90;;;25.78;54.31;101918.22;5112576;28;20725;-67
2022/09/11 08:48:28;;;;;;;7.22;5.28;;;25.70;99.90;;;25.02;56.75;101920.22;5112687;28;20051;-67
2022/09/11 08:50:58;;;;;;;8.10;5.28;;;24.80;99.90;;;25.09;57.36;101916.25;5113042;28;20459;-67
2022/09/11 08:53:31;;;;;;;6.22;4.57;;;24.60;99.90;;;25.91;57.19;101908.53;5114183;28;20046;-67
2022/09/11 08:56:07;;;;;;;7.32;5.05;;;25.30;99.90;;;26.10;54.92;101916.63;5113148;28;20526;-67
2022/09/11 08:58:49;;;;;;;6.75;4.85;;;25.70;99.90;;;26.01;55.82;101913.47;5112921;28;20071;-67
2022/09/11 09:01:29;;;;;;;6.75;4.35;;;25.60;99.90;;;25.08;56.29;101905.50;5112867;28;20048;-66
2022/09/11 09:04:22;;;;;;;7.75;4.45;;;24.80;99.90;;;25.36;56.18;101914.91;5112418;28;20122;-66
2022/09/11 09:07:05;;;;;;;7.65;4.55;;;25.00;99.90;;;25.61;56.08;101915.50;5112832;28;20044;-66
2022/09/11 09:09:44;;;;;;;6.03;4.13;;;25.10;99.90;;;26.22;56.08;101917.81;5112496;28;20493;-67
2022/09/11 09:12:22;;;;;;;6.30;4.40;;;25.70;99.90;;;25.79;55.56;101920.00;5112287;28;20134;-67
2022/09/11 09:15:19;;;;;;;5.75;4.22;;;25.60;99.90;;;25.76;55.77;101909.28;5113719;28;20379;-67
2022/09/11 09:17:54;;;;;;;7.57;4.47;;;25.60;99.90;;;25.48;57.64;101917.06;5129563;27;20142;-67
2022/09/11 09:20:30;;;;;;;5.75;4.13;;;25.20;99.90;;;24.86;56.06;101925.47;5113665;28;20150;-67
2022/09/11 09:23:04;;;;;;;6.65;4.22;;;24.80;99.90;;;24.51;56.61;101900.94;5113633;28;20050;-67
2022/09/11 09:25:38;;;;;;;5.60;3.90;;;24.20;99.90;;;24.44;57.83;101921.09;5112237;28;20071;-67
2022/09/11 09:28:18;;;;;;;6.57;4.47;;;23.90;99.90;;;23.63;59.92;101915.63;5112306;28;20488;-67
2022/09/11 09:30:51;;;;;;;6.70;3.83;;;23.50;99.90;;;24.68;59.28;101901.91;5112174;28;20071;-67
2022/09/11 09:33:34;;;;;;;6.22;4.40;;;24.10;99.90;;;24.59;58.13;101918.59;5113366;27;20169;-67
2022/09/11 09:36:16;;;;;;;8.43;4.78;;;24.10;99.90;;;24.39;59.11;101944.78;5112483;28;20808;-67
2022/09/11 09:38:48;;;;;;;8.52;4.70;;;24.00;99.90;;;23.78;59.52;101919.47;5112500;28;20096;-77
2022/09/11 09:42:08;;;;;;;6.97;4.30;;;23.60;99.90;;;23.86;60.56;101920.03;5113705;28;20063;-76
2022/09/11 09:45:02;;;;;;;5.93;4.07;;;23.40;99.90;;;23.63;60.27;101922.84;5112413;28;20511;-77
2022/09/11 09:47:31;;;;;;;5.03;4.53;;;23.20;99.90;;;24.05;60.30;101916.50;5112976;28;20060;-76
2022/09/11 09:49:59;;;;;;;6.70;4.45;;;23.50;99.90;;;24.31;59.39;101928.03;5113708;28;20127;-75
2022/09/11 09:52:34;;;;;;;4.78;3.83;;;23.80;99.90;;;24.84;59.95;101931.91;5113629;28;20404;-74
2022/09/11 09:55:11;;;;;;;6.78;3.85;;;24.30;99.90;;;25.44;58.44;101933.53;5113074;28;20040;-75
2022/09/11 09:57:39;;;;;;;5.82;3.92;;;25.00;99.90;;;26.16;56.67;101932.56;5113244;28;20044;-74
2022/09/11 10:00:18;;;;;;;7.05;3.95;;;25.70;99.90;;;26.84;55.78;101928.91;5113887;28;20031;-74
2022/09/11 10:02:49;;;;;;;4.25;2.95;;;26.40;99.90;;;27.33;53.65;101930.66;5113648;28;20544;-75
2022/09/11 10:05:24;;;;;;;5.18;3.42;;;27.00;99.90;;;27.76;52.07;101939.91;5113410;28;20040;-74
2022/09/11 10:07:55;;;;;;;5.18;3.88;;;27.50;99.90;;;27.68;51.59;101934.06;5113805;28;20051;-74
2022/09/11 10:10:30;;;;;;;6.25;4.53;;;27.40;99.90;;;27.81;49.82;101945.09;5112962;28;20054;-74
2022/09/11 10:13:01;;;;;;;6.53;4.20;;;27.50;99.90;;;26.37;51.73;101917.00;5113021;28;20046;-74
2022/09/11 10:15:49;;;;;;;6.18;3.60;;;26.50;99.90;;;25.72;53.94;101931.22;5112973;28;20054;-74
2022/09/11 10:18:42;;;;;;;7.45;4.45;;;25.50;99.90;;;26.12;53.73;101927.38;5113564;28;20050;-75
2022/09/11 10:21:22;;;;;;;7.15;4.30;;;25.70;99.90;;;26.27;52.96;101918.44;5113154;28;20126;-74
2022/09/11 10:23:54;;;;;;;5.90;3.55;;;25.80;99.90;;;26.27;52.45;101927.44;5112917;28;20043;-74
2022/09/11 10:26:29;;;;;;;6.15;3.70;;;26.00;99.90;;;26.63;52.00;101930.06;5113179;28;20044;-73
2022/09/11 10:29:06;;;;;;;5.60;3.65;;;26.20;99.90;;;27.13;51.61;101933.59;5112792;28;20043;-73
2022/09/11 10:31:38;;;;;;;6.15;4.53;;;26.70;99.90;;;27.18;50.73;101928.78;5112818;28;20054;-73
2022/09/11 10:34:14;;;;;;;5.88;3.03;;;26.90;99.90;;;27.56;50.15;101923.91;5112694;28;20050;-74
2022/09/11 10:36:53;;;;;;;6.78;3.60;;;27.20;99.90;;;27.48;50.71;101927.06;5112620;28;20039;-73